Time;durP1;ratioP1;P1;durP2;ratioP2;P2;SDS_P1;SDS_P2;PMS_P1;PMS_P2;Temp;Humidity;BMP_temperature;BMP_pressure;BME280_temperature;BME280_humidity;BME280_pressure;Samples;Min_cycle;Max_cycle;Signal;HPM_P1;HPM_P2
2023/04/08 00:01:21;;;;;;;32.60;17.50;;;;;;;2.75;91.73;98826.73;436075;1254;99191;-40
2023/04/08 00:11:29;;;;;;;21.30;15.10;;;;;;;2.67;91.55;98828.20;435936;1247;112684;-40
2023/04/08 00:21:36;;;;;;;18.60;13.40;;;;;;;2.61;91.48;98833.78;436104;1247;107269;-41
2023/04/08 00:31:43;;;;;;;23.50;14.40;;;;;;;2.60;91.49;98832.31;436140;1254;99230;-41
2023/04/08 00:41:50;;;;;;;45.40;21.50;;;;;;;2.55;91.43;98834.56;436168;1252;107982;-40
2023/04/08 00:51:59;;;;;;;28.00;16.30;;;;;;;2.46;91.45;98843.25;436051;1250;99241;-41
2023/04/08 01:02:07;;;;;;;30.50;16.70;;;;;;;2.49;91.19;98853.90;436128;1253;110701;-41
2023/04/08 01:12:16;;;;;;;27.80;16.80;;;;;;;2.47;91.14;98863.52;436333;1257;107831;-41
2023/04/08 01:22:23;;;;;;;30.80;19.70;;;;;;;2.41;91.18;98871.81;437126;1250;100175;-41
2023/04/08 01:32:30;;;;;;;26.70;17.30;;;;;;;2.21;91.09;98866.11;436251;1251;107916;-40
2023/04/08 01:42:39;;;;;;;17.80;13.50;;;;;;;2.09;90.70;98865.83;436232;1247;98830;-41
2023/04/08 01:52:46;;;;;;;20.40;15.20;;;;;;;2.04;90.78;98871.23;436350;1247;110165;-40
2023/04/08 02:02:55;;;;;;;28.00;17.10;;;;;;;2.04;90.79;98875.48;436216;1251;108142;-41
2023/04/08 02:33:20;;;;;;;20.60;14.90;;;;;;;1.92;90.67;98872.98;436370;1248;107347;-41
2023/04/08 02:53:34;;;;;;;17.90;13.30;;;;;;;2.07;91.04;98883.67;436366;1247;108550;-41
2023/04/08 03:03:41;;;;;;;21.00;13.20;;;;;;;2.11;91.07;98893.80;436351;1247;99269;-40
2023/04/08 03:13:49;;;;;;;26.70;17.20;;;;;;;2.10;90.94;98907.06;436669;1251;111124;-40
2023/04/08 03:23:56;;;;;;;26.20;15.40;;;;;;;2.06;90.87;98907.25;436544;1251;107785;-39
2023/04/08 03:34:03;;;;;;;18.90;13.30;;;;;;;2.02;90.79;98909.61;436648;1247;99246;-40
2023/04/08 03:44:10;;;;;;;18.20;12.40;;;;;;;2.03;91.07;98916.27;436227;1251;380162;-39
2023/04/08 03:54:17;;;;;;;17.30;10.80;;;;;;;2.08;91.09;98921.61;436409;1247;108299;-39
2023/04/08 04:04:25;;;;;;;23.40;15.30;;;;;;;2.10;91.28;98930.58;436455;1251;99672;-40
2023/04/08 04:14:32;;;;;;;21.60;13.70;;;;;;;2.11;91.18;98937.56;436390;1251;109394;-42
2023/04/08 04:24:39;;;;;;;16.30;12.20;;;;;;;2.18;91.20;98940.91;436473;1251;99218;-41
2023/04/08 04:34:46;;;;;;;23.30;15.10;;;;;;;2.24;91.50;98954.48;436339;1253;112160;-41
2023/04/08 04:44:54;;;;;;;18.90;13.60;;;;;;;2.33;91.39;98966.44;436504;1247;108975;-39
2023/04/08 04:55:02;;;;;;;32.40;19.50;;;;;;;2.38;91.32;98978.52;436319;1247;98589;-40
2023/04/08 05:05:10;;;;;;;21.30;15.00;;;;;;;2.36;91.33;98991.54;436502;1251;107705;-40
2023/04/08 05:15:17;;;;;;;21.90;13.60;;;;;;;2.43;91.29;98995.64;436572;1247;99239;-40
2023/04/08 05:25:25;;;;;;;24.40;15.40;;;;;;;2.51;91.27;99006.12;436509;1251;111956;-41
2023/04/08 05:35:32;;;;;;;27.50;16.80;;;;;;;2.55;91.30;99019.54;436493;1247;109185;-41
2023/04/08 05:45:39;;;;;;;19.90;13.60;;;;;;;2.63;91.14;99029.38;436547;1252;99262;-41
2023/04/08 05:55:46;;;;;;;19.70;12.60;;;;;;;2.80;91.14;99034.10;436289;1247;108243;-39
2023/04/08 06:05:53;;;;;;;22.60;14.20;;;;;;;2.91;90.99;99042.77;436412;1247;99865;-40
2023/04/08 06:16:09;;;;;;;27.60;16.30;;;;;;;2.91;90.92;99056.05;436414;1251;113333;-39
2023/04/08 06:26:16;;;;;;;17.50;11.20;;;;;;;2.99;90.82;99067.09;436409;1247;107904;-40
2023/04/08 06:36:24;;;;;;;12.80;9.90;;;;;;;3.16;90.62;99074.91;436552;1247;99201;-40
2023/04/08 06:46:31;;;;;;;19.30;12.70;;;;;;;3.45;90.67;99085.25;436507;1253;111728;-41
2023/04/08 06:56:38;;;;;;;16.00;11.20;;;;;;;3.68;90.52;99087.48;436443;1251;108278;-42
2023/04/08 07:06:46;;;;;;;11.90;9.00;;;;;;;3.97;89.93;99093.84;436443;1247;99314;-40
2023/04/08 07:16:53;;;;;;;18.80;13.00;;;;;;;4.55;89.87;99094.31;436586;1253;108494;-41
2023/04/08 07:27:01;;;;;;;16.50;10.70;;;;;;;4.82;89.27;99102.52;436555;1247;99456;-40
2023/04/08 07:37:08;;;;;;;16.50;10.50;;;;;;;4.78;88.63;99108.63;436468;1247;111970;-40
2023/04/08 07:47:15;;;;;;;29.60;17.10;;;;;;;4.84;88.15;99120.48;436441;1253;109528;-40
2023/04/08 07:57:22;;;;;;;17.80;11.20;;;;;;;4.84;87.81;99133.41;436493;1247;118206;-41
2023/04/08 08:17:36;;;;;;;20.10;13.50;;;;;;;5.19;86.83;99143.20;436075;1253;99310;-41
2023/04/08 08:27:44;;;;;;;23.50;12.70;;;;;;;5.25;85.87;99157.20;436491;1247;112063;-42
2023/04/08 08:37:51;;;;;;;16.30;11.80;;;;;;;5.46;85.76;99152.96;436381;1253;107270;-41
2023/04/08 08:47:57;;;;;;;22.40;13.80;;;;;;;5.83;84.84;99160.94;436375;1253;100722;-39
2023/04/08 09:18:30;;;;;;;19.00;12.60;;;;;;;6.99;82.26;99171.00;436413;1247;99259;-41
2023/04/08 09:28:38;;;;;;;19.10;13.20;;;;;;;7.76;81.52;99184.98;436414;1251;106912;-42
2023/04/08 09:49:01;;;;;;;19.90;13.50;;;;;;;7.71;79.54;99197.95;436657;1247;111826;-40
2023/04/08 10:09:15;;;;;;;19.40;13.80;;;;;;;8.15;76.00;99194.14;436255;1254;99339;-42
2023/04/08 10:29:47;;;;;;;19.00;13.30;;;;;;;8.70;75.45;99192.64;436481;1253;106616;-41
2023/04/08 10:39:55;;;;;;;20.80;13.90;;;;;;;8.99;75.30;99191.30;436343;1252;99334;-41
2023/04/08 10:50:12;;;;;;;24.10;15.90;;;;;;;9.13;73.55;99188.80;436407;1252;110786;-40
2023/04/08 11:00:20;;;;;;;21.40;14.80;;;;;;;9.13;72.98;99185.59;436385;1253;108241;-40
2023/04/08 11:10:28;;;;;;;19.40;14.20;;;;;;;9.38;72.73;99180.70;436469;1250;99222;-39
2023/04/08 11:20:37;;;;;;;21.90;15.10;;;;;;;9.58;71.58;99186.52;436365;1253;111701;-40
2023/04/08 11:30:44;;;;;;;21.20;14.10;;;;;;;9.58;71.44;99189.59;436252;1254;107284;-40
2023/04/08 11:40:53;;;;;;;18.70;13.90;;;;;;;9.10;70.47;99196.52;436528;1251;99206;-41
2023/04/08 11:51:02;;;;;;;;;;;;;;;9.10;70.35;99195.22;436505;1252;109116;-41
2023/04/08 12:01:10;;;;;;;20.80;14.90;;;;;;;9.30;70.65;99198.75;436287;1247;99205;-42
2023/04/08 12:11:18;;;;;;;28.00;17.10;;;;;;;9.29;71.11;99195.46;436451;1247;112267;-40
2023/04/08 12:31:33;;;;;;;22.30;15.80;;;;;;;9.15;71.11;99190.50;436403;1253;99255;-40
2023/04/08 12:41:40;;;;;;;22.40;15.80;;;;;;;9.16;71.45;99187.21;436345;1253;107743;-40
2023/04/08 12:51:48;;;;;;;19.10;13.80;;;;;;;9.21;71.37;99184.02;436323;1261;99225;-40
2023/04/08 13:01:55;;;;;;;22.00;16.50;;;;;;;9.33;71.70;99183.94;436474;1261;112156;-41
2023/04/08 13:22:09;;;;;;;24.00;16.40;;;;;;;9.58;70.97;99181.07;436337;1254;99318;-41
2023/04/08 13:32:16;;;;;;;30.10;17.30;;;;;;;9.76;71.18;99174.45;436717;1253;107276;-41
2023/04/08 13:42:24;;;;;;;26.80;17.20;;;;;;;9.66;70.03;99167.50;436293;1248;99272;-41
2023/04/08 13:52:31;;;;;;;28.40;18.90;;;;;;;9.73;70.18;99170.48;436427;1253;111904;-40
2023/04/08 14:02:39;;;;;;;26.30;18.50;;;;;;;9.74;70.07;99168.66;436194;1261;108162;-40
2023/04/08 14:12:47;;;;;;;21.70;16.00;;;;;;;9.92;70.39;99164.60;436372;1248;99211;-41
2023/04/08 14:22:55;;;;;;;23.60;16.70;;;;;;;9.86;69.78;99161.42;436357;1254;108765;-41
2023/04/08 14:43:09;;;;;;;28.60;20.10;;;;;;;9.44;70.78;99161.80;436433;1254;111425;-41
2023/04/08 14:53:17;;;;;;;22.10;14.60;;;;;;;9.31;71.18;99160.42;436120;1248;106845;-41
2023/04/08 15:03:24;;;;;;;24.60;17.10;;;;;;;9.19;71.79;99160.70;436206;1258;99861;-41
2023/04/08 15:13:32;;;;;;;53.70;27.40;;;;;;;9.09;72.28;99155.94;436277;1253;107781;-41
2023/04/08 15:33:45;;;;;;;14.00;9.60;;;;;;;8.55;72.76;99188.73;436409;1254;112675;-41
2023/04/08 15:54:00;;;;;;;21.50;14.70;;;;;;;7.75;74.92;99186.83;436397;1254;99256;-41
2023/04/08 16:04:08;;;;;;;18.80;13.60;;;;;;;7.63;75.50;99196.08;436309;1248;107666;-41
2023/04/08 16:14:15;;;;;;;43.50;24.50;;;;;;;7.69;76.21;99199.60;436232;1252;99220;-41
2023/04/08 16:24:24;;;;;;;64.50;34.20;;;;;;;7.62;76.60;99208.09;436226;1253;112507;-40
2023/04/08 16:34:31;;;;;;;61.10;37.00;;;;;;;7.46;77.08;99213.07;436296;1254;108122;-41
2023/04/08 16:44:39;;;;;;;36.10;22.10;;;;;;;7.37;77.70;99211.02;436439;1253;99126;-40
2023/04/08 16:54:47;;;;;;;35.60;22.10;;;;;;;7.41;77.89;99210.95;436226;1248;108827;-41
2023/04/08 17:04:54;;;;;;;46.20;27.20;;;;;;;7.46;78.37;99215.21;436269;1248;99244;-39
2023/04/08 17:15:01;;;;;;;43.60;28.00;;;;;;;7.59;78.96;99215.90;436422;1261;112116;-40
2023/04/08 17:25:10;;;;;;;68.00;35.50;;;;;;;7.41;78.96;99222.11;436139;1253;108431;-40
2023/04/08 17:35:17;;;;;;;100.50;47.20;;;;;;;7.23;79.35;99232.00;436291;1248;99250;-41
2023/04/08 17:45:23;;;;;;;85.50;47.00;;;;;;;7.13;79.72;99233.61;436390;1248;108397;-40
2023/04/08 17:55:29;;;;;;;67.30;41.70;;;;;;;7.26;80.44;99242.78;436303;1253;98273;-41
2023/04/08 18:05:36;;;;;;;104.10;58.40;;;;;;;7.17;80.15;99247.10;436254;1254;111136;-40
2023/04/08 18:15:42;;;;;;;93.90;57.10;;;;;;;6.94;80.44;99249.45;436228;1261;107886;-40
2023/04/08 18:25:49;;;;;;;159.90;88.00;;;;;;;6.70;80.86;99273.50;436310;1248;99214;-40
2023/04/08 18:35:57;;;;;;;139.00;80.80;;;;;;;6.55;81.08;99268.89;436311;1253;109585;-40
2023/04/08 18:46:05;;;;;;;159.40;85.00;;;;;;;6.58;81.48;99273.69;436253;1254;99257;-41
2023/04/08 19:06:21;;;;;;;141.00;78.80;;;;;;;6.70;81.96;99281.33;436345;1262;110520;-41
2023/04/08 19:16:27;;;;;;;162.50;88.10;;;;;;;6.73;82.03;99278.44;436390;1247;98662;-42
2023/04/08 19:26:32;;;;;;;151.80;86.60;;;;;;;6.59;82.30;99272.16;436499;1253;107065;-41
2023/04/08 19:36:39;;;;;;;139.30;80.60;;;;;;;6.39;82.36;99275.50;436157;1252;98992;-41
2023/04/08 19:46:46;;;;;;;127.60;72.40;;;;;;;6.30;82.46;99271.91;436324;1248;111440;-40
2023/04/08 19:56:54;;;;;;;87.30;49.50;;;;;;;6.31;82.61;99272.69;436287;1247;107736;-41
2023/04/08 20:07:03;;;;;;;89.10;50.20;;;;;;;6.25;82.53;99270.98;436518;1253;98835;-41
2023/04/08 20:17:10;;;;;;;98.70;55.20;;;;;;;6.35;82.79;99268.13;436435;1253;106862;-41
2023/04/08 20:37:23;;;;;;;76.60;44.70;;;;;;;6.39;83.01;99262.19;436455;1253;111581;-42
2023/04/08 20:47:32;;;;;;;59.80;36.60;;;;;;;6.32;82.95;99261.47;436257;1247;108539;-41
2023/04/08 21:07:46;;;;;;;59.00;35.80;;;;;;;6.39;83.04;99265.02;436296;1253;106887;-41
2023/04/08 21:17:53;;;;;;;83.40;41.90;;;;;;;6.45;83.39;99262.50;436357;1250;99231;-41
2023/04/08 21:28:00;;;;;;;70.20;41.60;;;;;;;6.33;83.42;99266.34;436477;1247;111805;-41
2023/04/08 21:38:08;;;;;;;62.60;36.80;;;;;;;6.15;83.31;99270.73;436111;1253;108360;-41
2023/04/08 21:48:15;;;;;;;65.60;40.60;;;;;;;6.05;83.46;99274.35;436545;1253;99340;-41
2023/04/08 21:58:22;;;;;;;62.30;36.40;;;;;;;6.06;83.60;99276.58;436177;1252;107013;-40
2023/04/08 22:08:31;;;;;;;59.50;36.60;;;;;;;6.05;83.67;99272.58;436279;1253;99356;-41
2023/04/08 22:18:39;;;;;;;55.60;34.50;;;;;;;6.19;83.89;99269.54;436308;1253;111928;-42
2023/04/08 22:28:46;;;;;;;76.80;41.50;;;;;;;6.04;83.61;99273.16;436330;1247;108211;-41
2023/04/08 22:38:53;;;;;;;89.50;51.90;;;;;;;5.86;84.07;99274.95;436519;1248;99209;-41
2023/04/08 22:49:01;;;;;;;100.30;59.40;;;;;;;5.78;84.07;99280.91;436138;1247;109419;-40
2023/04/08 22:59:07;;;;;;;99.30;58.20;;;;;;;5.73;84.13;99282.58;436435;1253;99208;-41
2023/04/08 23:09:14;;;;;;;83.90;50.30;;;;;;;5.84;84.48;99280.17;436344;1250;112258;-40
2023/04/08 23:19:20;;;;;;;80.10;49.10;;;;;;;5.87;84.35;99281.29;436298;1253;108789;-41
2023/04/08 23:29:28;;;;;;;79.80;49.90;;;;;;;5.91;84.74;99270.46;436453;1250;99230;-41
2023/04/08 23:39:34;;;;;;;99.10;55.10;;;;;;;5.79;84.58;99282.45;436399;1253;107846;-39
2023/04/08 23:49:39;;;;;;;87.70;53.90;;;;;;;5.61;84.75;99278.77;436269;1250;98011;-41
2023/04/08 23:59:47;;;;;;;80.20;47.60;;;;;;;5.58;84.88;99284.46;436418;1252;112075;-41
